Teanaway, Washington
Current Conditions -  °F | °C
As of 2:53 PM on Saturday 25 Oct 2014 (Local Time) from KELN Reporting Station
Overcast Overcast  
Wind Chill: 57°   Ceiling: 7000
Heat Index: 57°   Visibility: 10mi
Dew Point: 45°   Wind: 8mph
Humidity: 64%   Direction: 130°SE
Pressure: 29.5"   Gusts: NA
Location:  47.3367°N, 121.023°W
Report Text: KELN 252153Z AUTO 13007KT 10SM OVC070 14/07 A2950 RMK AO2 RAB30E47 SLP988 P0000 T01390072
Loading
Personal Weather Stations






























Interactive Weather Map
Tropical Storm Tracking
New forecast layout! Learn more

10-Day Weather Forecast

Advertisements
Track Severe Weather on mobile